sensor_id;sensor_type;location;lat;lon;timestamp;pressure;altitude;pressure_sealevel;temperature;humidity
23433;BME280;41331;45.412;10.992;2022-11-13T00:01:45;101912.41;;;12.24;80.50
23433;BME280;41331;45.412;10.992;2022-11-13T00:04:31;101915.63;;;12.39;78.34
23433;BME280;41331;45.412;10.992;2022-11-13T00:07:18;101915.63;;;12.53;74.79
23433;BME280;41331;45.412;10.992;2022-11-13T00:10:03;101912.25;;;12.70;70.27
23433;BME280;41331;45.412;10.992;2022-11-13T00:12:49;101918.88;;;13.05;64.91
23433;BME280;41331;45.412;10.992;2022-11-13T00:15:35;101919.97;;;13.40;62.56
23433;BME280;41331;45.412;10.992;2022-11-13T00:18:21;101920.75;;;13.63;60.48
23433;BME280;41331;45.412;10.992;2022-11-13T00:21:08;101916.66;;;13.83;58.67
23433;BME280;41331;45.412;10.992;2022-11-13T00:23:55;101922.75;;;14.11;57.22
23433;BME280;41331;45.412;10.992;2022-11-13T00:26:41;101925.09;;;14.35;54.78
23433;BME280;41331;45.412;10.992;2022-11-13T00:29:27;101930.13;;;14.42;54.86
23433;BME280;41331;45.412;10.992;2022-11-13T00:32:13;101931.72;;;14.43;56.84
23433;BME280;41331;45.412;10.992;2022-11-13T00:35:01;101932.44;;;14.17;57.72
23433;BME280;41331;45.412;10.992;2022-11-13T00:37:47;101941.28;;;14.14;57.36
23433;BME280;41331;45.412;10.992;2022-11-13T00:40:32;101944.66;;;14.11;57.62
23433;BME280;41331;45.412;10.992;2022-11-13T00:43:19;101947.41;;;14.20;56.71
23433;BME280;41331;45.412;10.992;2022-11-13T00:46:05;101953.59;;;14.34;55.79
23433;BME280;41331;45.412;10.992;2022-11-13T00:48:50;101955.63;;;14.51;54.69
23433;BME280;41331;45.412;10.992;2022-11-13T00:51:36;101959.31;;;14.46;55.34
23433;BME280;41331;45.412;10.992;2022-11-13T00:54:25;101953.31;;;14.44;55.85
23433;BME280;41331;45.412;10.992;2022-11-13T00:57:10;101945.19;;;14.31;55.89
23433;BME280;41331;45.412;10.992;2022-11-13T00:59:56;101945.72;;;14.33;55.59
23433;BME280;41331;45.412;10.992;2022-11-13T01:02:42;101935.38;;;14.30;56.11
23433;BME280;41331;45.412;10.992;2022-11-13T01:05:27;101938.34;;;14.42;55.43
23433;BME280;41331;45.412;10.992;2022-11-13T01:08:14;101943.16;;;14.45;56.09
23433;BME280;41331;45.412;10.992;2022-11-13T01:11:06;101933.84;;;14.46;55.96
23433;BME280;41331;45.412;10.992;2022-11-13T01:13:52;101929.00;;;14.43;56.19
23433;BME280;41331;45.412;10.992;2022-11-13T01:16:38;101919.47;;;14.40;56.19
23433;BME280;41331;45.412;10.992;2022-11-13T01:19:23;101918.72;;;14.48;55.88
23433;BME280;41331;45.412;10.992;2022-11-13T01:22:10;101915.81;;;14.54;55.07
23433;BME280;41331;45.412;10.992;2022-11-13T01:24:56;101923.06;;;14.49;56.19
23433;BME280;41331;45.412;10.992;2022-11-13T01:27:42;101921.91;;;14.42;56.38
23433;BME280;41331;45.412;10.992;2022-11-13T01:30:27;101915.75;;;14.45;56.52
23433;BME280;41331;45.412;10.992;2022-11-13T01:33:13;101910.75;;;14.38;56.87
23433;BME280;41331;45.412;10.992;2022-11-13T01:36:09;101907.03;;;14.34;56.64
23433;BME280;41331;45.412;10.992;2022-11-13T01:38:55;101911.09;;;14.37;56.82
23433;BME280;41331;45.412;10.992;2022-11-13T01:41:40;101916.56;;;14.37;56.69
23433;BME280;41331;45.412;10.992;2022-11-13T01:44:43;101911.56;;;14.39;57.08
23433;BME280;41331;45.412;10.992;2022-11-13T01:47:29;101909.97;;;14.38;57.17
23433;BME280;41331;45.412;10.992;2022-11-13T01:50:16;101908.03;;;14.38;56.94
23433;BME280;41331;45.412;10.992;2022-11-13T01:53:01;101909.16;;;14.37;57.80
23433;BME280;41331;45.412;10.992;2022-11-13T01:55:47;101904.78;;;14.28;57.66
23433;BME280;41331;45.412;10.992;2022-11-13T01:58:33;101900.06;;;14.19;58.88
23433;BME280;41331;45.412;10.992;2022-11-13T02:01:20;101900.56;;;14.21;58.04
23433;BME280;41331;45.412;10.992;2022-11-13T02:04:06;101901.81;;;14.15;58.38
23433;BME280;41331;45.412;10.992;2022-11-13T02:06:59;101901.69;;;14.20;57.43
23433;BME280;41331;45.412;10.992;2022-11-13T02:09:47;101904.13;;;14.22;57.69
23433;BME280;41331;45.412;10.992;2022-11-13T02:12:41;101895.25;;;14.25;56.72
23433;BME280;41331;45.412;10.992;2022-11-13T02:15:27;101900.91;;;14.29;56.06
23433;BME280;41331;45.412;10.992;2022-11-13T02:18:16;101892.97;;;14.18;56.62
23433;BME280;41331;45.412;10.992;2022-11-13T02:21:09;101894.44;;;14.16;57.30
23433;BME280;41331;45.412;10.992;2022-11-13T02:24:20;101883.69;;;13.88;58.18
23433;BME280;41331;45.412;10.992;2022-11-13T02:27:05;101878.25;;;13.97;57.94
23433;BME280;41331;45.412;10.992;2022-11-13T02:29:51;101881.16;;;13.61;60.70
23433;BME280;41331;45.412;10.992;2022-11-13T02:32:45;101875.03;;;13.33;63.40
23433;BME280;41331;45.412;10.992;2022-11-13T02:35:32;101867.91;;;13.09;64.65
23433;BME280;41331;45.412;10.992;2022-11-13T02:38:19;101866.28;;;12.86;66.01
23433;BME280;41331;45.412;10.992;2022-11-13T02:41:05;101862.66;;;12.77;66.75
23433;BME280;41331;45.412;10.992;2022-11-13T02:43:50;101864.09;;;12.74;66.16
23433;BME280;41331;45.412;10.992;2022-11-13T02:46:36;101858.94;;;12.73;67.31
23433;BME280;41331;45.412;10.992;2022-11-13T02:49:22;101859.78;;;12.59;67.15
23433;BME280;41331;45.412;10.992;2022-11-13T02:52:08;101859.97;;;12.63;67.87
23433;BME280;41331;45.412;10.992;2022-11-13T02:54:54;101861.31;;;12.52;69.29
23433;BME280;41331;45.412;10.992;2022-11-13T02:57:40;101860.09;;;12.44;69.30
23433;BME280;41331;45.412;10.992;2022-11-13T03:00:26;101862.81;;;12.58;65.64
23433;BME280;41331;45.412;10.992;2022-11-13T03:03:11;101862.50;;;12.59;65.67
23433;BME280;41331;45.412;10.992;2022-11-13T03:05:57;101866.34;;;12.58;67.05
23433;BME280;41331;45.412;10.992;2022-11-13T03:08:42;101870.84;;;12.40;67.78
23433;BME280;41331;45.412;10.992;2022-11-13T03:11:28;101870.09;;;12.49;66.15
23433;BME280;41331;45.412;10.992;2022-11-13T03:14:14;101875.44;;;12.67;65.61
23433;BME280;41331;45.412;10.992;2022-11-13T03:17:00;101882.50;;;12.82;61.01
23433;BME280;41331;45.412;10.992;2022-11-13T03:19:46;101873.97;;;13.42;55.59
23433;BME280;41331;45.412;10.992;2022-11-13T03:22:31;101886.50;;;13.74;54.16
23433;BME280;41331;45.412;10.992;2022-11-13T03:25:17;101880.44;;;13.78;54.18
23433;BME280;41331;45.412;10.992;2022-11-13T03:28:03;101883.56;;;13.93;52.89
23433;BME280;41331;45.412;10.992;2022-11-13T03:30:49;101873.69;;;13.84;53.64
23433;BME280;41331;45.412;10.992;2022-11-13T03:33:35;101880.78;;;13.85;53.75
23433;BME280;41331;45.412;10.992;2022-11-13T03:36:20;101873.97;;;13.73;54.41
23433;BME280;41331;45.412;10.992;2022-11-13T03:39:06;101881.97;;;13.61;55.09
23433;BME280;41331;45.412;10.992;2022-11-13T03:41:52;101882.22;;;13.51;54.68
23433;BME280;41331;45.412;10.992;2022-11-13T03:44:37;101887.50;;;13.47;54.65
23433;BME280;41331;45.412;10.992;2022-11-13T03:47:23;101887.97;;;13.50;54.50
23433;BME280;41331;45.412;10.992;2022-11-13T03:50:09;101872.88;;;13.52;54.25
23433;BME280;41331;45.412;10.992;2022-11-13T03:52:54;101874.75;;;13.43;55.19
23433;BME280;41331;45.412;10.992;2022-11-13T03:55:40;101874.28;;;13.41;54.99
23433;BME280;41331;45.412;10.992;2022-11-13T03:58:26;101867.31;;;13.35;55.11
23433;BME280;41331;45.412;10.992;2022-11-13T04:01:12;101866.94;;;13.28;55.78
23433;BME280;41331;45.412;10.992;2022-11-13T04:04:00;101866.34;;;13.31;54.84
23433;BME280;41331;45.412;10.992;2022-11-13T04:06:45;101862.34;;;13.37;54.61
23433;BME280;41331;45.412;10.992;2022-11-13T04:09:31;101855.69;;;13.29;55.47
23433;BME280;41331;45.412;10.992;2022-11-13T04:12:17;101854.88;;;13.29;55.29
23433;BME280;41331;45.412;10.992;2022-11-13T04:15:03;101855.22;;;13.27;55.85
23433;BME280;41331;45.412;10.992;2022-11-13T04:17:51;101855.53;;;13.26;56.42
23433;BME280;41331;45.412;10.992;2022-11-13T04:20:37;101851.50;;;13.09;57.40
23433;BME280;41331;45.412;10.992;2022-11-13T04:23:23;101847.81;;;13.05;58.17
23433;BME280;41331;45.412;10.992;2022-11-13T04:26:09;101853.88;;;13.02;58.28
23433;BME280;41331;45.412;10.992;2022-11-13T04:28:54;101848.25;;;12.85;59.11
23433;BME280;41331;45.412;10.992;2022-11-13T04:31:40;101852.75;;;12.81;59.28
23433;BME280;41331;45.412;10.992;2022-11-13T04:34:26;101853.03;;;12.79;59.62
23433;BME280;41331;45.412;10.992;2022-11-13T04:37:11;101844.66;;;12.76;59.64
23433;BME280;41331;45.412;10.992;2022-11-13T04:39:58;101842.78;;;12.62;59.46
23433;BME280;41331;45.412;10.992;2022-11-13T04:42:43;101850.53;;;12.69;60.10
23433;BME280;41331;45.412;10.992;2022-11-13T04:45:36;101850.66;;;12.64;59.72
23433;BME280;41331;45.412;10.992;2022-11-13T04:48:21;101852.09;;;12.61;59.35
23433;BME280;41331;45.412;10.992;2022-11-13T04:51:07;101846.44;;;12.58;59.39
23433;BME280;41331;45.412;10.992;2022-11-13T04:53:53;101849.84;;;12.63;59.00
23433;BME280;41331;45.412;10.992;2022-11-13T04:56:39;101855.34;;;12.50;60.05
23433;BME280;41331;45.412;10.992;2022-11-13T04:59:24;101851.63;;;12.46;60.28
23433;BME280;41331;45.412;10.992;2022-11-13T05:02:10;101844.72;;;12.48;60.16
23433;BME280;41331;45.412;10.992;2022-11-13T05:04:55;101847.38;;;12.39;59.53
23433;BME280;41331;45.412;10.992;2022-11-13T05:07:49;101855.34;;;12.50;59.29
23433;BME280;41331;45.412;10.992;2022-11-13T05:10:34;101845.53;;;12.49;59.44
23433;BME280;41331;45.412;10.992;2022-11-13T05:13:20;101849.97;;;12.58;58.46
23433;BME280;41331;45.412;10.992;2022-11-13T05:16:06;101848.34;;;12.57;58.67
23433;BME280;41331;45.412;10.992;2022-11-13T05:18:53;101856.97;;;12.51;58.93
23433;BME280;41331;45.412;10.992;2022-11-13T05:21:38;101864.06;;;12.52;59.37
23433;BME280;41331;45.412;10.992;2022-11-13T05:24:24;101858.69;;;12.47;59.60
23433;BME280;41331;45.412;10.992;2022-11-13T05:27:10;101864.88;;;12.38;59.83
23433;BME280;41331;45.412;10.992;2022-11-13T05:30:02;101872.38;;;12.33;59.70
23433;BME280;41331;45.412;10.992;2022-11-13T05:32:48;101880.75;;;12.36;59.97
23433;BME280;41331;45.412;10.992;2022-11-13T05:35:33;101878.31;;;12.35;59.88
23433;BME280;41331;45.412;10.992;2022-11-13T05:38:20;101878.31;;;12.35;59.48
23433;BME280;41331;45.412;10.992;2022-11-13T05:41:08;101886.31;;;12.31;60.38
23433;BME280;41331;45.412;10.992;2022-11-13T05:43:54;101893.88;;;12.34;59.84
23433;BME280;41331;45.412;10.992;2022-11-13T05:46:44;101886.91;;;12.42;59.90
23433;BME280;41331;45.412;10.992;2022-11-13T05:49:30;101893.19;;;12.42;59.87
23433;BME280;41331;45.412;10.992;2022-11-13T05:52:16;101878.72;;;12.28;61.27
23433;BME280;41331;45.412;10.992;2022-11-13T05:55:01;101872.69;;;12.17;61.79
23433;BME280;41331;45.412;10.992;2022-11-13T05:57:47;101872.47;;;12.14;62.31
23433;BME280;41331;45.412;10.992;2022-11-13T06:00:33;101868.03;;;12.18;62.02
23433;BME280;41331;45.412;10.992;2022-11-13T06:03:18;101871.47;;;12.24;61.69
23433;BME280;41331;45.412;10.992;2022-11-13T06:06:05;101879.75;;;12.32;61.44
23433;BME280;41331;45.412;10.992;2022-11-13T06:08:52;101891.38;;;12.38;61.35
23433;BME280;41331;45.412;10.992;2022-11-13T06:11:38;101898.38;;;12.30;61.04
23433;BME280;41331;45.412;10.992;2022-11-13T06:14:24;101904.75;;;12.26;61.49
23433;BME280;41331;45.412;10.992;2022-11-13T06:17:11;101913.22;;;12.38;61.17
23433;BME280;41331;45.412;10.992;2022-11-13T06:19:58;101915.94;;;12.24;62.23
23433;BME280;41331;45.412;10.992;2022-11-13T06:22:43;101918.47;;;12.21;62.21
23433;BME280;41331;45.412;10.992;2022-11-13T06:25:29;101920.19;;;12.16;62.40
23433;BME280;41331;45.412;10.992;2022-11-13T06:28:15;101941.94;;;12.22;62.43
23433;BME280;41331;45.412;10.992;2022-11-13T06:31:01;101935.66;;;12.21;62.35
23433;BME280;41331;45.412;10.992;2022-11-13T06:33:47;101923.94;;;12.21;62.67
23433;BME280;41331;45.412;10.992;2022-11-13T06:36:33;101927.16;;;12.23;62.65
23433;BME280;41331;45.412;10.992;2022-11-13T06:39:19;101934.88;;;12.21;62.93
23433;BME280;41331;45.412;10.992;2022-11-13T06:42:05;101946.50;;;12.26;62.84
23433;BME280;41331;45.412;10.992;2022-11-13T06:44:51;101947.06;;;12.23;63.46
23433;BME280;41331;45.412;10.992;2022-11-13T06:47:40;101945.78;;;12.21;63.48
23433;BME280;41331;45.412;10.992;2022-11-13T06:50:26;101941.72;;;12.18;64.41
23433;BME280;41331;45.412;10.992;2022-11-13T06:53:12;101938.78;;;12.28;63.75
23433;BME280;41331;45.412;10.992;2022-11-13T06:55:58;101946.88;;;12.47;63.63
23433;BME280;41331;45.412;10.992;2022-11-13T06:58:44;101948.06;;;13.18;60.68
23433;BME280;41331;45.412;10.992;2022-11-13T07:01:29;101952.88;;;14.11;57.98
23433;BME280;41331;45.412;10.992;2022-11-13T07:04:16;101953.06;;;14.55;55.76
23433;BME280;41331;45.412;10.992;2022-11-13T07:07:02;101958.00;;;14.44;55.75
23433;BME280;41331;45.412;10.992;2022-11-13T07:09:49;101960.22;;;14.33;56.57
23433;BME280;41331;45.412;10.992;2022-11-13T07:12:37;101963.63;;;14.39;56.55
23433;BME280;41331;45.412;10.992;2022-11-13T07:15:23;101967.25;;;14.57;56.19
23433;BME280;41331;45.412;10.992;2022-11-13T07:18:09;101969.75;;;14.93;54.91
23433;BME280;41331;45.412;10.992;2022-11-13T07:20:55;101968.41;;;15.94;52.08
23433;BME280;41331;45.412;10.992;2022-11-13T07:23:41;101966.38;;;16.21;51.24
23433;BME280;41331;45.412;10.992;2022-11-13T07:26:29;101960.22;;;15.60;51.99
23433;BME280;41331;45.412;10.992;2022-11-13T07:29:14;101965.75;;;15.16;53.61
23433;BME280;41331;45.412;10.992;2022-11-13T07:32:00;101971.03;;;14.87;55.41
23433;BME280;41331;45.412;10.992;2022-11-13T07:34:46;101976.97;;;14.40;57.15
23433;BME280;41331;45.412;10.992;2022-11-13T07:37:32;101985.94;;;14.55;56.83
23433;BME280;41331;45.412;10.992;2022-11-13T07:40:17;101984.38;;;14.31;57.70
23433;BME280;41331;45.412;10.992;2022-11-13T07:43:03;101978.06;;;14.22;58.26
23433;BME280;41331;45.412;10.992;2022-11-13T07:45:49;101973.53;;;14.17;58.59
23433;BME280;41331;45.412;10.992;2022-11-13T07:48:39;101976.75;;;14.19;58.27
23433;BME280;41331;45.412;10.992;2022-11-13T07:51:25;101984.78;;;14.16;58.88
23433;BME280;41331;45.412;10.992;2022-11-13T07:54:13;101989.28;;;14.12;59.01
23433;BME280;41331;45.412;10.992;2022-11-13T07:56:58;101988.88;;;14.27;58.45
23433;BME280;41331;45.412;10.992;2022-11-13T07:59:44;101983.88;;;14.29;58.59
23433;BME280;41331;45.412;10.992;2022-11-13T08:02:30;101999.44;;;14.20;59.38
23433;BME280;41331;45.412;10.992;2022-11-13T08:05:16;101985.63;;;14.25;59.46
23433;BME280;41331;45.412;10.992;2022-11-13T08:08:03;101987.75;;;14.28;60.44
23433;BME280;41331;45.412;10.992;2022-11-13T08:10:50;101990.13;;;14.52;58.90
23433;BME280;41331;45.412;10.992;2022-11-13T08:13:36;101966.47;;;14.73;56.20
23433;BME280;41331;45.412;10.992;2022-11-13T08:16:23;101966.31;;;14.70;55.96
23433;BME280;41331;45.412;10.992;2022-11-13T08:19:08;101964.25;;;14.93;54.41
23433;BME280;41331;45.412;10.992;2022-11-13T08:21:54;101959.44;;;14.98;54.09
23433;BME280;41331;45.412;10.992;2022-11-13T08:24:42;101960.88;;;14.96;54.21
23433;BME280;41331;45.412;10.992;2022-11-13T08:27:28;101965.50;;;14.69;55.44
23433;BME280;41331;45.412;10.992;2022-11-13T08:30:14;101970.81;;;14.66;57.06
23433;BME280;41331;45.412;10.992;2022-11-13T08:33:01;101970.69;;;14.80;56.92
23433;BME280;41331;45.412;10.992;2022-11-13T08:35:56;101959.72;;;14.80;57.49
23433;BME280;41331;45.412;10.992;2022-11-13T08:38:42;101957.97;;;14.84;57.35
23433;BME280;41331;45.412;10.992;2022-11-13T08:41:28;101941.63;;;14.70;58.99
23433;BME280;41331;45.412;10.992;2022-11-13T08:44:14;101947.78;;;14.67;58.00
23433;BME280;41331;45.412;10.992;2022-11-13T08:46:59;101951.47;;;14.62;57.48
23433;BME280;41331;45.412;10.992;2022-11-13T08:49:45;101948.13;;;15.00;56.73
23433;BME280;41331;45.412;10.992;2022-11-13T08:52:31;101949.28;;;15.34;55.51
23433;BME280;41331;45.412;10.992;2022-11-13T08:55:17;101945.16;;;15.92;53.09
23433;BME280;41331;45.412;10.992;2022-11-13T08:58:03;101952.13;;;16.87;50.26
23433;BME280;41331;45.412;10.992;2022-11-13T09:00:49;101949.50;;;17.86;46.96
23433;BME280;41331;45.412;10.992;2022-11-13T09:03:35;101951.03;;;18.08;46.39
23433;BME280;41331;45.412;10.992;2022-11-13T09:06:21;101954.72;;;18.24;46.28
23433;BME280;41331;45.412;10.992;2022-11-13T09:09:07;101963.19;;;18.07;46.49
23433;BME280;41331;45.412;10.992;2022-11-13T09:11:53;101959.72;;;17.85;45.87
23433;BME280;41331;45.412;10.992;2022-11-13T09:14:39;101972.91;;;17.92;45.79
23433;BME280;41331;45.412;10.992;2022-11-13T09:17:24;101978.16;;;18.18;46.25
23433;BME280;41331;45.412;10.992;2022-11-13T09:20:10;101976.22;;;17.73;47.92
23433;BME280;41331;45.412;10.992;2022-11-13T09:23:00;101977.16;;;17.90;48.04
23433;BME280;41331;45.412;10.992;2022-11-13T09:25:49;101985.72;;;17.76;47.46
23433;BME280;41331;45.412;10.992;2022-11-13T09:28:35;101979.72;;;16.78;48.25
23433;BME280;41331;45.412;10.992;2022-11-13T09:31:20;101968.69;;;16.48;47.81
23433;BME280;41331;45.412;10.992;2022-11-13T09:34:06;101975.94;;;16.15;50.42
23433;BME280;41331;45.412;10.992;2022-11-13T09:36:53;101977.97;;;16.26;50.84
23433;BME280;41331;45.412;10.992;2022-11-13T09:39:38;101978.75;;;15.89;50.87
23433;BME280;41331;45.412;10.992;2022-11-13T09:42:24;101981.50;;;15.97;50.93
23433;BME280;41331;45.412;10.992;2022-11-13T09:45:12;101977.69;;;16.19;50.72
23433;BME280;41331;45.412;10.992;2022-11-13T09:48:06;101968.91;;;15.88;51.36
23433;BME280;41331;45.412;10.992;2022-11-13T09:50:54;101970.81;;;16.04;51.29
23433;BME280;41331;45.412;10.992;2022-11-13T09:53:40;101957.75;;;15.93;51.82
23433;BME280;41331;45.412;10.992;2022-11-13T09:56:33;101947.63;;;16.23;51.73
23433;BME280;41331;45.412;10.992;2022-11-13T10:08:08;101909.00;;;15.81;48.60
23433;BME280;41331;45.412;10.992;2022-11-13T10:13:57;101903.56;;;15.55;49.89
23433;BME280;41331;45.412;10.992;2022-11-13T10:16:51;101902.41;;;15.56;50.82
23433;BME280;41331;45.412;10.992;2022-11-13T10:19:42;101906.47;;;15.50;50.06
23433;BME280;41331;45.412;10.992;2022-11-13T10:22:33;101911.66;;;15.51;51.03
23433;BME280;41331;45.412;10.992;2022-11-13T10:25:22;101910.19;;;15.45;49.62
23433;BME280;41331;45.412;10.992;2022-11-13T10:28:10;101910.34;;;15.58;50.51
23433;BME280;41331;45.412;10.992;2022-11-13T10:31:16;101907.28;;;15.68;50.82
23433;BME280;41331;45.412;10.992;2022-11-13T10:34:02;101898.56;;;15.66;50.13
23433;BME280;41331;45.412;10.992;2022-11-13T10:39:53;101890.00;;;15.59;49.76
23433;BME280;41331;45.412;10.992;2022-11-13T10:42:39;101887.41;;;15.62;49.88
23433;BME280;41331;45.412;10.992;2022-11-13T10:45:26;101892.28;;;15.57;49.55
23433;BME280;41331;45.412;10.992;2022-11-13T10:48:19;101879.84;;;15.59;50.25
23433;BME280;41331;45.412;10.992;2022-11-13T10:51:14;101876.28;;;15.67;50.03
23433;BME280;41331;45.412;10.992;2022-11-13T10:57:23;101861.66;;;15.28;50.36
23433;BME280;41331;45.412;10.992;2022-11-13T11:00:23;101863.78;;;15.14;50.45
23433;BME280;41331;45.412;10.992;2022-11-13T11:03:16;101863.78;;;15.23;51.34
23433;BME280;41331;45.412;10.992;2022-11-13T11:06:03;101858.13;;;15.37;51.09
23433;BME280;41331;45.412;10.992;2022-11-13T11:08:49;101863.25;;;15.38;50.90
23433;BME280;41331;45.412;10.992;2022-11-13T11:11:35;101861.97;;;15.36;50.93
23433;BME280;41331;45.412;10.992;2022-11-13T11:14:41;101853.09;;;15.39;50.35
23433;BME280;41331;45.412;10.992;2022-11-13T11:26:25;101831.25;;;15.51;51.41
23433;BME280;41331;45.412;10.992;2022-11-13T11:29:15;101846.75;;;15.64;51.21
23433;BME280;41331;45.412;10.992;2022-11-13T11:35:04;101844.84;;;15.47;52.72
23433;BME280;41331;45.412;10.992;2022-11-13T11:40:40;101821.41;;;15.50;53.96
23433;BME280;41331;45.412;10.992;2022-11-13T11:43:32;101813.97;;;15.68;53.00
23433;BME280;41331;45.412;10.992;2022-11-13T11:46:21;101805.22;;;15.74;53.25
23433;BME280;41331;45.412;10.992;2022-11-13T11:49:07;101807.41;;;15.43;53.33
23433;BME280;41331;45.412;10.992;2022-11-13T11:52:08;101805.94;;;15.45;53.51
23433;BME280;41331;45.412;10.992;2022-11-13T11:55:44;101806.47;;;15.39;53.68
23433;BME280;41331;45.412;10.992;2022-11-13T11:58:15;101793.38;;;15.44;53.73
23433;BME280;41331;45.412;10.992;2022-11-13T12:01:04;101791.69;;;15.61;53.72
23433;BME280;41331;45.412;10.992;2022-11-13T12:09:39;101780.66;;;15.31;54.59
23433;BME280;41331;45.412;10.992;2022-11-13T12:18:26;101771.94;;;15.38;55.11
23433;BME280;41331;45.412;10.992;2022-11-13T12:24:18;101766.78;;;15.36;55.92
23433;BME280;41331;45.412;10.992;2022-11-13T12:35:51;101739.06;;;15.20;55.21
23433;BME280;41331;45.412;10.992;2022-11-13T12:44:31;101739.41;;;15.19;55.68
23433;BME280;41331;45.412;10.992;2022-11-13T12:47:24;101727.97;;;15.17;55.33
23433;BME280;41331;45.412;10.992;2022-11-13T12:50:24;101722.31;;;15.22;55.50
23433;BME280;41331;45.412;10.992;2022-11-13T12:53:23;101725.41;;;15.03;55.42
23433;BME280;41331;45.412;10.992;2022-11-13T12:56:28;101710.38;;;15.18;55.45
23433;BME280;41331;45.412;10.992;2022-11-13T13:02:25;101710.56;;;15.13;56.84
23433;BME280;41331;45.412;10.992;2022-11-13T13:16:43;101709.16;;;14.89;57.09
23433;BME280;41331;45.412;10.992;2022-11-13T13:19:30;101700.44;;;14.96;57.77
23433;BME280;41331;45.412;10.992;2022-11-13T13:22:23;101703.03;;;14.92;57.42
23433;BME280;41331;45.412;10.992;2022-11-13T13:30:56;101706.47;;;14.72;58.55
23433;BME280;41331;45.412;10.992;2022-11-13T13:39:26;101715.50;;;14.81;59.08
23433;BME280;41331;45.412;10.992;2022-11-13T13:42:16;101703.06;;;14.84;59.36
23433;BME280;41331;45.412;10.992;2022-11-13T13:48:12;101707.75;;;14.74;60.24
23433;BME280;41331;45.412;10.992;2022-11-13T13:50:58;101702.88;;;14.89;60.13
23433;BME280;41331;45.412;10.992;2022-11-13T13:53:44;101703.34;;;14.91;59.99
23433;BME280;41331;45.412;10.992;2022-11-13T13:56:31;101707.72;;;14.83;60.51
23433;BME280;41331;45.412;10.992;2022-11-13T13:59:19;101699.19;;;14.85;61.03
23433;BME280;41331;45.412;10.992;2022-11-13T14:02:16;101703.06;;;14.84;61.06
23433;BME280;41331;45.412;10.992;2022-11-13T14:05:15;101694.22;;;14.69;61.69
23433;BME280;41331;45.412;10.992;2022-11-13T14:08:01;101695.84;;;14.62;62.23
23433;BME280;41331;45.412;10.992;2022-11-13T14:10:51;101701.97;;;14.76;62.25
23433;BME280;41331;45.412;10.992;2022-11-13T14:13:37;101701.63;;;14.86;61.66
23433;BME280;41331;45.412;10.992;2022-11-13T14:16:25;101707.28;;;14.72;62.22
23433;BME280;41331;45.412;10.992;2022-11-13T14:19:10;101705.34;;;14.64;62.56
23433;BME280;41331;45.412;10.992;2022-11-13T14:21:57;101711.16;;;14.63;62.34
23433;BME280;41331;45.412;10.992;2022-11-13T14:27:30;101710.03;;;14.46;63.01
23433;BME280;41331;45.412;10.992;2022-11-13T14:30:23;101708.25;;;14.33;63.29
23433;BME280;41331;45.412;10.992;2022-11-13T14:33:12;101709.69;;;14.31;63.77
23433;BME280;41331;45.412;10.992;2022-11-13T14:36:00;101722.09;;;14.28;64.29
23433;BME280;41331;45.412;10.992;2022-11-13T14:38:46;101711.63;;;14.30;64.85
23433;BME280;41331;45.412;10.992;2022-11-13T14:41:50;101714.53;;;14.25;64.53
23433;BME280;41331;45.412;10.992;2022-11-13T14:44:38;101718.88;;;14.17;64.82
23433;BME280;41331;45.412;10.992;2022-11-13T14:47:25;101726.25;;;13.91;67.12
23433;BME280;41331;45.412;10.992;2022-11-13T14:50:22;101721.53;;;13.74;68.49
23433;BME280;41331;45.412;10.992;2022-11-13T14:53:09;101723.81;;;13.72;68.61
23433;BME280;41331;45.412;10.992;2022-11-13T14:55:55;101721.69;;;13.69;68.90
23433;BME280;41331;45.412;10.992;2022-11-13T14:58:45;101718.81;;;13.74;68.04
23433;BME280;41331;45.412;10.992;2022-11-13T15:01:33;101706.25;;;13.73;68.33
23433;BME280;41331;45.412;10.992;2022-11-13T15:04:20;101709.16;;;13.77;68.73
23433;BME280;41331;45.412;10.992;2022-11-13T15:10:11;101715.78;;;13.84;67.60
23433;BME280;41331;45.412;10.992;2022-11-13T15:13:00;101709.50;;;13.84;67.60
23433;BME280;41331;45.412;10.992;2022-11-13T15:15:45;101711.41;;;13.66;70.13
23433;BME280;41331;45.412;10.992;2022-11-13T15:18:31;101709.63;;;13.61;70.60
23433;BME280;41331;45.412;10.992;2022-11-13T15:21:17;101705.59;;;13.67;69.16
23433;BME280;41331;45.412;10.992;2022-11-13T15:24:03;101707.53;;;13.67;68.65
23433;BME280;41331;45.412;10.992;2022-11-13T15:26:49;101710.88;;;13.55;70.53
23433;BME280;41331;45.412;10.992;2022-11-13T15:29:35;101707.97;;;13.60;69.59
23433;BME280;41331;45.412;10.992;2022-11-13T15:32:21;101715.16;;;13.39;71.12
23433;BME280;41331;45.412;10.992;2022-11-13T15:35:13;101716.75;;;13.31;71.40
23433;BME280;41331;45.412;10.992;2022-11-13T15:37:58;101703.84;;;13.23;72.71
23433;BME280;41331;45.412;10.992;2022-11-13T15:40:44;101723.56;;;13.11;74.00
23433;BME280;41331;45.412;10.992;2022-11-13T15:43:30;101715.81;;;13.13;73.70
23433;BME280;41331;45.412;10.992;2022-11-13T15:46:18;101711.31;;;13.09;73.68
23433;BME280;41331;45.412;10.992;2022-11-13T15:49:04;101710.03;;;13.06;74.72
23433;BME280;41331;45.412;10.992;2022-11-13T15:51:50;101715.09;;;12.99;75.72
23433;BME280;41331;45.412;10.992;2022-11-13T15:54:36;101708.84;;;12.99;74.42
23433;BME280;41331;45.412;10.992;2022-11-13T15:57:23;101709.91;;;12.89;75.38
23433;BME280;41331;45.412;10.992;2022-11-13T16:00:13;101708.25;;;12.79;75.94
23433;BME280;41331;45.412;10.992;2022-11-13T16:02:59;101708.50;;;12.69;76.70